Time;durP1;ratioP1;P1;durP2;ratioP2;P2;SDS_P1;SDS_P2;PMS_P1;PMS_P2;Temp;Humidity;BMP_temperature;BMP_pressure;BME280_temperature;BME280_humidity;BME280_pressure;Samples;Min_cycle;Max_cycle;Signal;HPM_P1;HPM_P2
2022/06/18 00:00:00;;;;;;;4.78;3.47;;;;;;;18.13;89.88;101132.25;694168;28;1393;-79
2022/06/18 00:00:23;;;;;;;4.55;3.42;;;;;;;18.14;89.76;101132.22;697373;28;1289;-79
2022/06/18 00:00:44;;;;;;;4.60;3.50;;;;;;;18.11;90.03;101128.78;690836;28;1314;-79
2022/06/18 00:01:05;;;;;;;4.93;3.50;;;;;;;18.10;90.10;101132.34;696890;28;5214;-79
2022/06/18 00:01:35;;;;;;;5.10;3.70;;;;;;;18.07;90.02;101132.41;694618;28;1160;-79
2022/06/18 00:01:57;;;;;;;5.00;3.42;;;;;;;18.10;89.06;101137.66;697223;28;2311;-79
2022/06/18 00:02:18;;;;;;;4.68;3.45;;;;;;;18.09;90.16;101142.03;697476;28;1426;-79
2022/06/18 00:02:43;;;;;;;5.10;3.38;;;;;;;18.09;90.54;101127.97;698172;28;1006;-79
2022/06/18 00:03:03;;;;;;;5.90;3.50;;;;;;;18.09;90.39;101134.09;695612;28;1278;-79
2022/06/18 00:03:25;;;;;;;6.07;3.57;;;;;;;18.07;89.79;101127.13;698942;28;1329;-79
2022/06/18 00:03:45;;;;;;;5.13;3.35;;;;;;;18.05;90.31;101132.47;696196;28;1646;-78
2022/06/18 00:04:11;;;;;;;4.67;3.40;;;;;;;18.01;90.19;101128.16;695541;28;5283;-79
2022/06/18 00:04:32;;;;;;;5.80;3.83;;;;;;;18.02;89.33;101130.78;696387;28;923;-79
2022/06/18 00:04:52;;;;;;;4.73;3.40;;;;;;;18.04;89.38;101128.97;697749;28;1010;-79
2022/06/18 00:05:15;;;;;;;4.50;3.60;;;;;;;18.03;90.21;101127.22;693601;28;1356;-79
2022/06/18 00:05:37;;;;;;;4.93;3.60;;;;;;;18.01;91.12;101129.06;691541;28;1161;-79
2022/06/18 00:05:57;;;;;;;5.70;3.40;;;;;;;18.00;90.47;101127.31;696371;28;971;-79
2022/06/18 00:06:18;;;;;;;6.18;3.55;;;;;;;18.00;89.75;101127.31;699900;28;1073;-79
2022/06/18 00:06:49;;;;;;;5.10;3.60;;;;;;;18.00;90.84;101123.81;703039;28;1281;-79
2022/06/18 00:07:12;;;;;;;4.90;3.38;;;;;;;18.04;90.76;101122.78;699206;28;4293;-79
2022/06/18 00:07:43;;;;;;;4.68;3.30;;;;;;;17.99;91.42;101124.72;697614;28;1025;-79
2022/06/18 00:08:13;;;;;;;4.60;3.47;;;;;;;17.96;91.22;101125.66;694123;28;1438;-79
2022/06/18 00:08:34;;;;;;;5.55;3.70;;;;;;;17.93;91.08;101125.75;691509;28;1717;-79
2022/06/18 00:08:57;;;;;;;4.80;3.40;;;;;;;17.90;90.53;101135.50;693556;28;934;-79
2022/06/18 00:09:33;;;;;;;5.65;3.60;;;;;;;17.93;89.99;101128.41;695652;28;1919;-79
2022/06/18 00:09:57;;;;;;;5.53;3.50;;;;;;;17.96;91.09;101127.44;694977;28;974;-79
2022/06/18 00:10:21;;;;;;;4.90;3.50;;;;;;;17.93;91.41;101133.69;697817;28;4846;-79
2022/06/18 00:10:42;;;;;;;6.70;3.53;;;;;;;17.93;90.08;101117.81;697223;28;1395;-79
2022/06/18 00:13:54;;;;;;;7.03;3.70;;;;;;;17.79;91.08;101115.53;699867;28;2135;-79
2022/06/18 00:14:14;;;;;;;6.00;3.70;;;;;;;17.79;91.05;101112.88;697111;28;1270;-79
2022/06/18 00:14:35;;;;;;;4.40;3.57;;;;;;;17.79;90.59;101118.19;697619;28;962;-79
2022/06/18 00:14:55;;;;;;;4.67;3.40;;;;;;;17.82;90.82;101128.66;694898;28;1140;-79
2022/06/18 00:15:17;;;;;;;4.60;3.60;;;;;;;17.86;90.23;101119.72;695546;28;1236;-79
2022/06/18 00:15:41;;;;;;;5.80;3.60;;;;;;;17.89;90.60;101113.50;697578;28;1311;-79
2022/06/18 00:16:02;;;;;;;5.70;3.58;;;;;;;17.87;90.86;101120.59;694063;28;4293;-79
2022/06/18 00:16:22;;;;;;;5.95;3.70;;;;;;;17.84;90.45;101120.69;697657;28;1909;-79
2022/06/18 00:16:43;;;;;;;4.85;3.40;;;;;;;17.85;90.66;101114.50;700343;28;1279;-79
2022/06/18 00:17:12;;;;;;;5.60;3.53;;;;;;;17.88;91.38;101117.03;695652;28;1780;-79
2022/06/18 00:17:32;;;;;;;5.13;3.70;;;;;;;17.87;91.33;101115.31;696623;28;1472;-79
2022/06/18 00:17:53;;;;;;;5.38;3.88;;;;;;;17.84;91.27;101120.69;695598;28;927;-79
2022/06/18 00:18:14;;;;;;;5.10;3.78;;;;;;;17.81;91.41;101120.78;693519;28;1063;-79
2022/06/18 00:18:34;;;;;;;6.27;3.73;;;;;;;17.79;91.62;101131.41;694806;28;992;-79
2022/06/18 00:18:54;;;;;;;5.70;3.63;;;;;;;17.78;91.08;101111.16;696546;28;1553;-79
2022/06/18 00:19:15;;;;;;;5.33;3.80;;;;;;;17.82;91.23;101114.56;694678;28;4258;-79
2022/06/18 00:19:35;;;;;;;5.47;3.65;;;;;;;17.82;91.68;101120.72;695714;28;977;-79
2022/06/18 00:19:56;;;;;;;5.27;3.50;;;;;;;17.79;92.37;101117.28;698981;28;929;-79
2022/06/18 00:20:18;;;;;;;5.43;3.57;;;;;;;17.78;91.87;101113.78;694945;28;1276;-79
2022/06/18 00:20:40;;;;;;;5.85;3.55;;;;;;;17.76;92.52;101112.94;694436;28;1590;-79
2022/06/18 00:21:03;;;;;;;5.00;3.40;;;;;;;17.74;92.45;101120.06;691774;28;1382;-79
2022/06/18 00:21:25;;;;;;;5.78;3.40;;;;;;;17.75;90.74;101118.28;688740;28;986;-79
2022/06/18 00:21:49;;;;;;;5.38;3.55;;;;;;;17.74;93.35;101117.44;689628;28;911;-79
2022/06/18 00:22:13;;;;;;;4.55;3.70;;;;;;;17.76;91.79;101112.94;688581;28;4277;-79
2022/06/18 00:22:33;;;;;;;4.75;3.58;;;;;;;17.81;91.50;101112.84;692544;28;1006;-79
2022/06/18 00:22:56;;;;;;;4.53;3.43;;;;;;;17.82;91.76;101122.50;692510;28;1312;-78
2022/06/18 00:23:17;;;;;;;4.25;3.50;;;;;;;17.80;91.98;101119.88;690699;28;1421;-79
2022/06/18 00:23:39;;;;;;;5.40;3.50;;;;;;;17.84;90.69;101116.25;697507;28;1385;-79
2022/06/18 00:24:00;;;;;;;5.07;3.42;;;;;;;17.87;91.28;101123.25;694291;28;1217;-79
2022/06/18 00:24:21;;;;;;;5.00;3.40;;;;;;;17.89;90.51;101108.22;691840;28;1230;-79
2022/06/18 00:24:42;;;;;;;4.88;3.58;;;;;;;17.84;91.53;101132.13;695116;28;1325;-79
2022/06/18 00:25:28;;;;;;;5.18;3.72;;;;;;;17.78;90.99;101116.44;692604;28;4510;-79
2022/06/18 00:25:51;;;;;;;5.00;3.63;;;;;;;17.72;91.69;101115.72;694286;28;1319;-79
2022/06/18 00:26:12;;;;;;;5.35;3.42;;;;;;;17.73;91.37;101107.75;697551;28;980;-79
2022/06/18 00:26:33;;;;;;;5.05;3.53;;;;;;;17.75;91.73;101147.38;697353;28;1258;-79
2022/06/18 00:26:53;;;;;;;5.10;3.50;;;;;;;17.77;90.98;101112.06;698105;28;784;-79
2022/06/18 00:27:16;;;;;;;5.20;3.50;;;;;;;17.75;91.69;101110.34;691945;28;1228;-78
2022/06/18 00:27:36;;;;;;;4.40;3.58;;;;;;;17.79;91.44;101112.00;691405;28;1501;-79
2022/06/18 00:27:58;;;;;;;4.70;3.70;;;;;;;17.79;90.73;101131.41;691770;28;4286;-79
2022/06/18 00:28:24;;;;;;;4.50;3.58;;;;;;;17.77;90.37;101143.78;691937;28;1311;-79
2022/06/18 00:28:46;;;;;;;4.88;3.65;;;;;;;17.79;90.12;101109.34;695080;28;1228;-79
2022/06/18 00:29:11;;;;;;;4.95;3.40;;;;;;;17.85;89.65;101106.56;699028;28;1597;-79
2022/06/18 00:29:34;;;;;;;4.82;3.63;;;;;;;17.86;90.27;101119.72;698815;28;1172;-79
2022/06/18 00:29:54;;;;;;;5.20;3.55;;;;;;;17.82;90.50;101111.91;701901;28;1323;-79
2022/06/18 00:30:19;;;;;;;4.75;3.58;;;;;;;17.78;91.09;101110.28;694690;28;1396;-79
2022/06/18 00:30:39;;;;;;;6.00;3.70;;;;;;;17.77;90.13;101116.47;689168;28;1869;-79
2022/06/18 00:31:00;;;;;;;4.93;3.47;;;;;;;17.76;91.54;101102.38;691098;28;4276;-79
2022/06/18 00:31:21;;;;;;;4.93;3.60;;;;;;;17.77;90.92;101117.34;691225;28;1515;-79
2022/06/18 00:31:41;;;;;;;5.20;3.70;;;;;;;17.77;92.18;101116.47;692207;28;1223;-79
2022/06/18 00:32:02;;;;;;;6.32;3.78;;;;;;;17.76;92.38;101114.75;693902;28;1310;-79
2022/06/18 00:32:25;;;;;;;5.35;3.75;;;;;;;17.72;91.39;101113.09;696736;28;1445;-79
2022/06/18 00:32:45;;;;;;;5.57;3.70;;;;;;;17.73;90.58;101110.41;697738;28;1537;-79
2022/06/18 00:33:07;;;;;;;5.70;3.50;;;;;;;17.75;91.10;101116.53;694818;28;1644;-79
2022/06/18 00:33:28;;;;;;;7.03;3.55;;;;;;;17.79;90.70;101117.28;695121;28;828;-79
2022/06/18 00:33:49;;;;;;;5.68;3.50;;;;;;;17.81;89.88;101104.91;692217;28;1421;-79
2022/06/18 00:34:10;;;;;;;5.32;3.47;;;;;;;17.79;90.89;101104.97;691204;28;5775;-79
2022/06/18 00:34:30;;;;;;;5.10;3.60;;;;;;;17.77;91.19;101106.75;697826;28;1576;-79
2022/06/18 00:34:50;;;;;;;5.30;3.60;;;;;;;17.76;90.74;101109.44;696702;28;866;-79
2022/06/18 00:35:12;;;;;;;4.70;3.43;;;;;;;17.78;90.16;101108.50;694883;28;1377;-79
2022/06/18 00:35:33;;;;;;;4.70;3.60;;;;;;;17.80;91.31;101119.03;694410;28;1319;-79
2022/06/18 00:35:58;;;;;;;5.03;3.47;;;;;;;17.82;90.17;101107.50;695282;28;979;-79
2022/06/18 00:36:18;;;;;;;4.57;3.50;;;;;;;17.83;90.00;101111.91;689643;28;1906;-79
2022/06/18 00:36:40;;;;;;;5.30;3.40;;;;;;;17.83;91.50;101111.91;691479;28;1589;-79
2022/06/18 00:37:03;;;;;;;5.78;3.55;;;;;;;17.83;91.50;101118.94;691775;28;4307;-79
2022/06/18 00:37:25;;;;;;;5.20;3.50;;;;;;;17.78;91.84;101110.28;692155;28;1355;-79
2022/06/18 00:37:51;;;;;;;5.80;3.58;;;;;;;17.73;92.05;101109.53;691435;28;1382;-79
2022/06/18 00:38:18;;;;;;;4.60;3.20;;;;;;;17.70;92.38;101103.41;697860;28;1251;-79
2022/06/18 00:38:42;;;;;;;4.15;3.30;;;;;;;17.69;91.32;101107.00;696202;28;805;-79
2022/06/18 00:39:04;;;;;;;5.10;3.30;;;;;;;17.70;92.41;101100.78;695652;28;1033;-79
2022/06/18 00:39:24;;;;;;;4.75;3.55;;;;;;;17.69;91.93;101107.00;695366;28;1690;-79
2022/06/18 00:39:45;;;;;;;4.88;3.50;;;;;;;17.70;91.91;101108.69;697122;28;821;-79
2022/06/18 00:40:39;;;;;;;5.00;3.38;;;;;;;17.80;89.99;101105.81;690232;28;4449;-79
2022/06/18 00:41:02;;;;;;;4.95;3.30;;;;;;;17.76;90.86;101106.81;693188;28;2037;-79
2022/06/18 00:41:25;;;;;;;4.67;3.60;;;;;;;17.76;90.77;101110.31;692412;28;2054;-79
2022/06/18 00:41:51;;;;;;;4.93;3.63;;;;;;;17.73;91.46;101112.19;694601;28;1470;-79
2022/06/18 00:42:23;;;;;;;4.75;3.60;;;;;;;17.69;91.47;101114.91;695943;28;1139;-79
2022/06/18 00:42:44;;;;;;;5.22;3.90;;;;;;;17.70;91.27;101108.69;691559;28;979;-79
2022/06/18 00:43:10;;;;;;;5.50;3.60;;;;;;;17.76;90.31;101112.09;688373;28;4324;-79
2022/06/18 00:43:43;;;;;;;4.45;3.42;;;;;;;17.79;90.50;101112.00;696503;28;1231;-79
2022/06/18 00:44:19;;;;;;;4.90;3.30;;;;;;;17.78;90.60;101115.59;696710;28;1090;-79
2022/06/18 00:44:41;;;;;;;5.13;3.35;;;;;;;17.75;91.15;101113.00;691646;28;1435;-79
2022/06/18 00:45:03;;;;;;;5.57;3.40;;;;;;;17.69;91.44;101112.28;693365;28;1029;-79
2022/06/18 00:45:27;;;;;;;7.15;3.90;;;;;;;17.64;91.69;101106.25;695213;28;1317;-79
2022/06/18 00:45:50;;;;;;;6.15;3.85;;;;;;;17.59;91.95;101110.78;689490;28;1290;-79
2022/06/18 00:46:11;;;;;;;5.82;3.90;;;;;;;17.60;91.67;101107.22;692885;28;4253;-79
2022/06/18 00:46:56;;;;;;;5.38;3.58;;;;;;;17.64;91.11;101105.34;688740;28;1270;-79
2022/06/18 00:47:47;;;;;;;4.80;3.72;;;;;;;17.56;92.36;101102.09;689543;28;1170;-79
2022/06/18 00:48:21;;;;;;;4.80;3.70;;;;;;;17.55;92.41;101105.63;689858;28;1323;-79
2022/06/18 00:49:28;;;;;;;5.80;3.50;;;;;;;17.62;91.02;101102.75;693624;28;901;-79
2022/06/18 00:49:55;;;;;;;5.03;3.72;;;;;;;17.69;90.74;101107.00;680397;28;7393;-79
2022/06/18 00:50:23;;;;;;;4.95;3.65;;;;;;;17.64;91.56;101108.00;688233;28;2176;-79
2022/06/18 00:50:50;;;;;;;4.72;3.45;;;;;;;17.65;91.61;101101.81;689468;28;1212;-79
2022/06/18 00:51:20;;;;;;;6.07;3.58;;;;;;;17.64;90.97;101108.00;684865;28;1004;-79
2022/06/18 00:51:47;;;;;;;4.80;3.45;;;;;;;17.68;90.48;101102.59;691436;28;1272;-79
2022/06/18 00:52:13;;;;;;;5.28;3.50;;;;;;;17.67;90.20;101111.44;694764;28;1164;-79
2022/06/18 00:52:41;;;;;;;5.93;3.35;;;;;;;17.66;90.49;101109.69;696076;28;1337;-79
2022/06/18 00:53:12;;;;;;;4.97;3.72;;;;;;;17.65;90.43;101104.44;699647;28;1403;-79
2022/06/18 00:53:42;;;;;;;4.90;3.70;;;;;;;17.65;90.98;101110.63;700563;28;1647;-79
2022/06/18 00:54:11;;;;;;;5.43;3.60;;;;;;;17.64;91.30;101108.00;701563;28;1002;-79
2022/06/18 00:55:03;;;;;;;5.45;3.70;;;;;;;17.62;91.31;101107.19;702636;28;1214;-79
2022/06/18 00:55:31;;;;;;;5.20;3.60;;;;;;;17.67;90.45;101100.84;699517;28;4869;-79
2022/06/18 00:56:00;;;;;;;4.95;3.60;;;;;;;17.69;89.91;101104.34;696943;28;896;-79
2022/06/18 00:56:28;;;;;;;4.80;3.47;;;;;;;17.76;89.56;101101.50;696971;28;1963;-79
2022/06/18 00:56:56;;;;;;;5.68;3.63;;;;;;;17.76;90.18;101107.66;699449;28;1357;-79
2022/06/18 00:57:28;;;;;;;5.20;3.63;;;;;;;17.70;91.51;101106.06;696518;28;1318;-79
2022/06/18 00:57:58;;;;;;;5.60;3.72;;;;;;;17.67;91.30;101108.78;697868;28;1269;-79
2022/06/18 00:58:31;;;;;;;6.15;3.70;;;;;;;17.65;91.53;101110.63;694637;28;4716;-79
2022/06/18 00:59:04;;;;;;;5.13;3.35;;;;;;;17.63;91.23;101101.84;696492;28;856;-79
2022/06/18 00:59:54;;;;;;;5.50;3.42;;;;;;;17.68;89.40;101107.88;692875;28;2299;-79
2022/06/18 01:00:23;;;;;;;5.47;3.70;;;;;;;17.66;90.95;101101.75;685216;28;4951;-79
2022/06/18 01:00:48;;;;;;;4.63;3.47;;;;;;;17.69;90.19;101146.66;688328;28;1364;-79
2022/06/18 01:01:18;;;;;;;5.38;3.70;;;;;;;17.71;89.29;101133.38;688177;28;4302;-79
2022/06/18 01:01:45;;;;;;;5.03;3.60;;;;;;;17.75;89.51;101102.41;689228;28;848;-79
2022/06/18 01:02:13;;;;;;;5.22;3.55;;;;;;;17.74;92.25;101106.84;687565;28;1387;-79
2022/06/18 01:02:38;;;;;;;5.03;3.80;;;;;;;17.70;92.08;101124.56;689874;28;972;-79
2022/06/18 01:02:59;;;;;;;4.90;3.65;;;;;;;17.62;91.97;101096.59;696142;28;1310;-79
2022/06/18 01:03:32;;;;;;;5.18;3.80;;;;;;;17.57;91.21;101098.50;693860;28;1483;-79
2022/06/18 01:03:56;;;;;;;5.70;3.40;;;;;;;17.59;91.85;101105.50;691518;28;1383;-79
2022/06/18 01:04:23;;;;;;;6.18;3.80;;;;;;;17.62;90.56;101099.25;690779;28;4275;-79
2022/06/18 01:04:47;;;;;;;5.43;3.70;;;;;;;17.64;89.80;101127.38;688415;28;1303;-79
2022/06/18 01:05:24;;;;;;;4.85;3.42;;;;;;;17.63;90.58;101096.56;688226;28;1390;-79
2022/06/18 01:05:45;;;;;;;5.15;3.45;;;;;;;17.61;90.44;101105.44;691259;28;1115;-79
2022/06/18 01:06:30;;;;;;;5.00;3.47;;;;;;;17.65;90.84;101105.34;694077;28;1263;-79
2022/06/18 01:06:58;;;;;;;5.15;3.42;;;;;;;17.66;90.74;101098.25;692532;28;1616;-79
2022/06/18 01:07:36;;;;;;;6.32;3.70;;;;;;;17.59;92.01;101102.84;690850;28;4750;-79
2022/06/18 01:08:01;;;;;;;6.07;3.80;;;;;;;17.58;91.94;101095.81;695562;28;1559;-79
2022/06/18 01:08:25;;;;;;;6.40;3.50;;;;;;;17.60;91.46;101109.88;696113;28;1437;-79
2022/06/18 01:08:48;;;;;;;5.20;3.50;;;;;;;17.64;91.17;101098.31;695732;28;1916;-79
2022/06/18 01:09:13;;;;;;;4.95;3.50;;;;;;;17.63;91.00;101107.13;699191;28;1424;-79
2022/06/18 01:09:35;;;;;;;5.57;3.70;;;;;;;17.63;90.59;101099.22;695103;28;1234;-79
2022/06/18 01:09:57;;;;;;;5.05;3.50;;;;;;;17.63;90.51;101104.50;694242;28;1117;-79
2022/06/18 01:10:26;;;;;;;4.55;3.50;;;;;;;17.60;91.92;101103.69;690660;28;4720;-79
2022/06/18 01:11:15;;;;;;;5.80;3.42;;;;;;;17.56;92.07;101094.16;694280;28;1429;-79
2022/06/18 01:11:39;;;;;;;5.20;3.55;;;;;;;17.57;91.05;101096.75;692696;28;840;-79
2022/06/18 01:12:00;;;;;;;4.97;3.60;;;;;;;17.58;91.03;101103.75;696131;28;1638;-79
2022/06/18 01:12:23;;;;;;;5.53;3.42;;;;;;;17.58;90.83;101106.38;693269;28;1304;-79
2022/06/18 01:12:44;;;;;;;5.30;3.55;;;;;;;17.57;90.60;101107.31;692371;28;878;-79
2022/06/18 01:13:08;;;;;;;5.27;3.47;;;;;;;17.58;90.33;101098.47;695225;28;4338;-79
2022/06/18 01:13:34;;;;;;;5.13;3.67;;;;;;;17.58;92.15;101102.88;696533;28;1660;-79
2022/06/18 01:13:57;;;;;;;4.82;3.47;;;;;;;17.57;91.65;101102.03;700457;28;1442;-79
2022/06/18 01:14:18;;;;;;;5.88;3.50;;;;;;;17.53;90.99;101097.75;694194;28;1060;-79
2022/06/18 01:14:40;;;;;;;6.63;3.55;;;;;;;17.53;91.81;101103.03;693954;28;1404;-79
2022/06/18 01:15:10;;;;;;;6.03;3.70;;;;;;;17.53;91.36;101095.94;693877;28;1263;-79
2022/06/18 01:15:37;;;;;;;6.47;3.80;;;;;;;17.51;93.10;101108.34;697765;28;1306;-79
2022/06/18 01:15:58;;;;;;;5.03;3.75;;;;;;;17.50;93.00;101100.44;696825;28;4544;-79
2022/06/18 01:16:21;;;;;;;4.78;3.40;;;;;;;17.50;91.74;101096.03;692406;28;1910;-79
2022/06/18 01:16:46;;;;;;;5.78;3.53;;;;;;;17.49;91.64;101123.38;695890;28;1289;-79
2022/06/18 01:17:10;;;;;;;5.43;3.65;;;;;;;17.52;91.41;101114.50;696812;28;1425;-79
2022/06/18 01:17:35;;;;;;;6.47;3.67;;;;;;;17.52;91.03;101094.22;693999;28;1247;-79
2022/06/18 01:17:56;;;;;;;5.40;3.40;;;;;;;17.53;90.57;101116.25;697017;28;1455;-79
2022/06/18 01:18:17;;;;;;;5.75;3.22;;;;;;;17.57;90.28;101117.91;698000;28;919;-79
2022/06/18 01:18:40;;;;;;;5.47;3.55;;;;;;;17.57;90.76;101122.28;696582;28;844;-79
2022/06/18 01:19:03;;;;;;;4.57;3.55;;;;;;;17.50;91.13;101118.94;693231;28;4365;-79
2022/06/18 01:19:37;;;;;;;4.95;3.70;;;;;;;17.55;90.31;101109.13;695121;28;1248;-79
2022/06/18 01:20:00;;;;;;;5.13;3.50;;;;;;;17.54;91.08;101102.09;689969;28;1376;-79
2022/06/18 01:20:24;;;;;;;5.47;3.50;;;;;;;17.52;91.26;101098.63;692057;28;1513;-79
2022/06/18 01:20:58;;;;;;;6.25;3.33;;;;;;;17.52;90.51;101088.06;691389;28;1428;-79
2022/06/18 01:21:30;;;;;;;5.60;3.55;;;;;;;17.54;90.73;101096.81;692124;28;1204;-78
2022/06/18 01:22:00;;;;;;;4.30;3.47;;;;;;;17.55;89.98;101089.75;698395;28;1459;-79
2022/06/18 01:22:42;;;;;;;5.50;3.70;;;;;;;17.57;90.02;101096.75;698943;28;5081;-79
2022/06/18 01:23:16;;;;;;;5.20;3.42;;;;;;;17.55;91.05;101095.91;698706;28;1428;-79
2022/06/18 01:23:45;;;;;;;6.28;3.50;;;;;;;17.52;91.81;101093.34;694062;28;1286;-79
2022/06/18 01:24:21;;;;;;;5.45;3.55;;;;;;;17.48;91.79;101089.91;692580;28;1482;-79
2022/06/18 01:24:44;;;;;;;4.50;3.50;;;;;;;17.46;90.98;101093.50;691462;28;1351;-79
2022/06/18 01:25:06;;;;;;;4.45;3.40;;;;;;;17.47;91.51;101089.94;693179;28;4349;-79
2022/06/18 01:25:30;;;;;;;5.45;3.67;;;;;;;17.50;91.30;101092.50;694834;28;1637;-79
2022/06/18 01:25:53;;;;;;;5.30;3.70;;;;;;;17.49;92.08;101096.09;691176;28;1286;-79
2022/06/18 01:26:14;;;;;;;4.63;3.50;;;;;;;17.50;91.44;101095.16;688261;28;1588;-80
2022/06/18 01:26:36;;;;;;;4.75;3.50;;;;;;;17.52;90.45;101088.91;697353;28;1246;-79
2022/06/18 01:26:57;;;;;;;4.55;3.40;;;;;;;17.55;89.82;101098.53;697280;28;1203;-79
2022/06/18 01:27:18;;;;;;;5.57;3.50;;;;;;;17.54;90.07;101091.53;691647;28;1039;-79
2022/06/18 01:27:39;;;;;;;5.33;3.90;;;;;;;17.56;89.97;101095.00;694559;28;1177;-79
2022/06/18 01:28:02;;;;;;;4.72;3.67;;;;;;;17.57;89.71;101095.84;693551;28;4336;-79
2022/06/18 01:28:25;;;;;;;4.85;3.30;;;;;;;17.56;89.60;101096.78;694699;28;1338;-79
2022/06/18 01:28:46;;;;;;;5.70;3.40;;;;;;;17.55;90.36;101095.91;688364;28;1093;-79
2022/06/18 01:29:07;;;;;;;5.80;3.45;;;;;;;17.52;89.91;101088.91;688976;28;1176;-79
2022/06/18 01:29:27;;;;;;;5.65;3.50;;;;;;;17.52;89.70;101090.72;693166;28;1296;-79
2022/06/18 01:29:48;;;;;;;4.70;3.40;;;;;;;17.53;89.81;101095.94;694367;28;1367;-79
2022/06/18 01:30:14;;;;;;;5.55;3.50;;;;;;;17.51;90.44;101095.13;691952;28;1254;-79
2022/06/18 01:30:39;;;;;;;5.20;3.53;;;;;;;17.49;90.47;101094.28;693583;28;1760;-79
2022/06/18 01:31:09;;;;;;;4.13;3.30;;;;;;;17.46;90.14;101088.22;692473;28;5418;-79
2022/06/18 01:31:33;;;;;;;5.05;3.40;;;;;;;17.46;91.25;101089.09;695646;28;1771;-79
2022/06/18 01:31:54;;;;;;;5.35;3.50;;;;;;;17.44;91.61;101090.03;695773;28;1161;-79
2022/06/18 01:32:20;;;;;;;6.03;3.38;;;;;;;17.45;91.25;101091.78;693141;28;1386;-79
2022/06/18 01:32:45;;;;;;;4.68;3.50;;;;;;;17.48;90.76;101087.28;695110;28;1172;-79
2022/06/18 01:33:07;;;;;;;4.35;3.40;;;;;;;17.49;90.90;101086.38;692188;28;1526;-79
2022/06/18 01:33:32;;;;;;;4.40;3.20;;;;;;;17.45;91.72;101081.22;689108;28;1643;-79
2022/06/18 01:33:53;;;;;;;4.65;3.30;;;;;;;17.43;91.63;101077.72;691030;28;1222;-79
2022/06/18 01:34:16;;;;;;;5.05;3.33;;;;;;;17.43;91.55;101090.94;693622;28;4250;-79
2022/06/18 01:34:46;;;;;;;4.75;3.30;;;;;;;17.47;90.28;101088.19;693337;28;1514;-79
2022/06/18 01:35:07;;;;;;;5.07;3.50;;;;;;;17.46;91.21;101081.16;695221;28;1285;-79
2022/06/18 01:35:38;;;;;;;4.85;3.40;;;;;;;17.43;91.55;101089.19;693009;28;1353;-79
2022/06/18 01:36:07;;;;;;;5.95;3.60;;;;;;;17.42;91.33;101087.44;688365;28;1343;-79
2022/06/18 01:36:33;;;;;;;5.00;3.47;;;;;;;17.38;91.31;101080.50;691104;28;1906;-79
2022/06/18 01:36:54;;;;;;;4.60;3.45;;;;;;;17.35;91.31;101078.81;691626;28;1313;-79
2022/06/18 01:37:16;;;;;;;5.68;3.60;;;;;;;17.38;91.09;101079.63;690731;28;4336;-79
2022/06/18 01:37:37;;;;;;;4.75;3.60;;;;;;;17.38;91.10;101076.97;694565;28;1291;-79
2022/06/18 01:38:10;;;;;;;5.90;3.60;;;;;;;17.45;90.63;101076.78;688522;28;1463;-79
2022/06/18 01:38:33;;;;;;;5.05;3.47;;;;;;;17.44;90.31;101075.03;691189;28;1466;-79
2022/06/18 01:38:54;;;;;;;4.47;3.38;;;;;;;17.45;90.46;101081.22;690759;28;1335;-79
2022/06/18 01:39:22;;;;;;;4.55;3.30;;;;;;;17.44;91.21;101079.47;690276;28;1525;-79
2022/06/18 01:39:46;;;;;;;5.43;3.58;;;;;;;17.42;90.95;101082.16;690144;28;826;-79
2022/06/18 01:40:12;;;;;;;6.40;3.50;;;;;;;17.39;91.02;101081.38;690036;28;4311;-79
2022/06/18 01:40:42;;;;;;;6.63;3.50;;;;;;;17.35;91.80;101073.53;695943;28;1197;-79
2022/06/18 01:42:07;;;;;;;4.65;3.30;;;;;;;17.34;91.97;101074.41;694630;28;1243;-79
2022/06/18 01:42:36;;;;;;;5.90;3.20;;;;;;;17.33;91.43;101064.78;693041;28;1266;-79
2022/06/18 01:42:59;;;;;;;4.45;3.38;;;;;;;17.36;90.82;101069.09;689226;28;5001;-79
2022/06/18 01:43:23;;;;;;;4.60;3.38;;;;;;;17.36;91.12;101079.66;690725;28;1354;-79
2022/06/18 01:43:46;;;;;;;5.05;3.50;;;;;;;17.35;90.36;101075.31;692310;28;1240;-79
2022/06/18 01:44:17;;;;;;;5.18;3.40;;;;;;;17.34;90.51;101078.84;688255;28;1240;-79
2022/06/18 01:44:38;;;;;;;4.30;3.28;;;;;;;17.32;91.46;101070.97;693858;28;1004;-79
2022/06/18 01:45:05;;;;;;;4.28;3.42;;;;;;;17.30;91.51;101061.34;691651;28;1580;-79
2022/06/18 01:45:36;;;;;;;5.22;3.47;;;;;;;17.29;90.41;101072.81;693578;28;1526;-79
2022/06/18 01:46:01;;;;;;;5.20;3.40;;;;;;;17.25;91.22;101066.75;693896;28;965;-80
2022/06/18 01:46:28;;;;;;;4.90;3.33;;;;;;;17.25;91.39;101079.97;688691;28;4978;-79
2022/06/18 01:46:52;;;;;;;4.13;3.28;;;;;;;17.24;91.74;101078.22;689517;28;1435;-79
2022/06/18 01:47:28;;;;;;;5.25;3.50;;;;;;;17.22;92.29;101072.09;690751;28;1464;-79
2022/06/18 01:48:00;;;;;;;5.63;3.50;;;;;;;17.26;90.41;101076.41;693536;28;1372;-78
2022/06/18 01:48:30;;;;;;;5.82;3.30;;;;;;;17.35;90.21;101076.16;698392;28;1441;-78
2022/06/18 01:48:55;;;;;;;4.80;3.25;;;;;;;17.34;90.72;101063.00;699234;28;1247;-78
2022/06/18 01:49:23;;;;;;;4.15;3.00;;;;;;;17.36;91.21;101066.44;696869;28;4839;-78
2022/06/18 01:50:00;;;;;;;4.38;3.35;;;;;;;17.32;91.42;101076.25;694905;28;1273;-78
2022/06/18 01:50:36;;;;;;;5.13;3.45;;;;;;;17.30;91.30;101074.56;691977;28;1329;-78
2022/06/18 01:51:03;;;;;;;6.03;3.30;;;;;;;17.26;91.59;101065.81;694650;28;1200;-78
2022/06/18 01:51:30;;;;;;;4.78;3.38;;;;;;;17.30;91.55;101082.47;692892;28;886;-78
2022/06/18 01:51:53;;;;;;;5.82;3.30;;;;;;;17.32;90.70;101070.97;694520;28;1647;-78
2022/06/18 01:52:26;;;;;;;6.40;3.63;;;;;;;17.29;91.36;101071.06;695678;28;4894;-78
2022/06/18 01:52:59;;;;;;;5.00;3.10;;;;;;;17.25;92.07;101069.41;696084;28;1381;-78
2022/06/18 01:53:35;;;;;;;4.90;3.50;;;;;;;17.21;92.53;101061.56;696020;28;1265;-78
2022/06/18 01:54:01;;;;;;;5.15;3.20;;;;;;;17.21;91.72;101067.75;690881;28;1382;-78
2022/06/18 01:54:28;;;;;;;5.70;3.63;;;;;;;17.23;91.60;101075.63;695784;28;1468;-78
2022/06/18 01:54:55;;;;;;;5.85;3.22;;;;;;;17.25;90.75;101063.22;695709;28;1093;-78
2022/06/18 01:55:22;;;;;;;5.00;3.33;;;;;;;17.28;90.38;101057.84;689708;28;4308;-78
2022/06/18 01:56:17;;;;;;;3.80;2.97;;;;;;;17.19;91.37;101056.34;694555;28;871;-78
2022/06/18 01:56:43;;;;;;;5.30;3.42;;;;;;;17.19;91.53;101056.34;695016;28;2370;-78
2022/06/18 01:57:13;;;;;;;4.55;3.40;;;;;;;17.17;91.66;101066.09;696588;28;1571;-78
2022/06/18 01:57:39;;;;;;;6.47;3.35;;;;;;;17.16;91.98;101065.19;698462;28;1684;-78
2022/06/18 01:58:11;;;;;;;5.57;3.30;;;;;;;17.17;91.99;101061.66;695876;28;4280;-78
2022/06/18 01:58:38;;;;;;;4.78;3.30;;;;;;;17.21;90.66;101059.81;696681;28;1511;-78
2022/06/18 01:59:15;;;;;;;5.00;3.40;;;;;;;17.22;91.00;101060.69;697102;28;1363;-78
2022/06/18 01:59:41;;;;;;;4.60;3.10;;;;;;;17.26;90.44;101059.69;695417;28;1466;-78
2022/06/18 02:00:13;;;;;;;4.55;3.17;;;;;;;17.23;91.38;101060.63;690231;28;5037;-78
2022/06/18 02:00:44;;;;;;;4.57;3.47;;;;;;;17.18;92.43;101055.47;691795;28;1403;-78
2022/06/18 02:01:11;;;;;;;4.90;3.60;;;;;;;17.15;92.73;101062.59;692729;28;4293;-78
2022/06/18 02:01:38;;;;;;;4.93;3.50;;;;;;;17.13;92.63;101065.28;691857;28;1372;-78
2022/06/18 02:02:00;;;;;;;4.85;3.40;;;;;;;17.12;91.48;101068.81;693501;28;1197;-78
2022/06/18 02:02:21;;;;;;;4.45;3.08;;;;;;;17.15;91.92;101059.97;692074;28;1203;-78
2022/06/18 02:02:42;;;;;;;5.60;3.40;;;;;;;17.17;91.96;101080.16;693725;28;1267;-78
2022/06/18 02:03:04;;;;;;;4.93;3.55;;;;;;;17.18;91.37;101073.09;688395;28;1605;-78
2022/06/18 02:03:25;;;;;;;5.82;3.88;;;;;;;17.20;90.41;101060.72;688764;28;1279;-78
2022/06/18 02:03:45;;;;;;;4.47;3.53;;;;;;;17.22;90.67;101077.38;696361;28;1701;-78
2022/06/18 02:04:06;;;;;;;4.45;3.20;;;;;;;17.21;90.83;101078.31;695203;28;4285;-78
2022/06/18 02:04:27;;;;;;;5.13;3.40;;;;;;;17.22;90.70;101084.44;692972;28;1126;-78
2022/06/18 02:04:48;;;;;;;5.10;3.50;;;;;;;17.21;90.61;101064.22;695467;28;1296;-78
2022/06/18 02:05:10;;;;;;;4.65;3.22;;;;;;;17.19;91.55;101054.53;694317;28;1317;-78
2022/06/18 02:05:30;;;;;;;4.70;3.35;;;;;;;17.16;92.90;101053.78;697269;28;1830;-79
2022/06/18 02:05:51;;;;;;;4.78;3.35;;;;;;;17.14;92.48;101088.16;697147;28;836;-78
2022/06/18 02:06:13;;;;;;;5.17;3.37;;;;;;;17.16;91.28;101069.63;696677;28;1126;-78
2022/06/18 02:06:35;;;;;;;6.15;3.30;;;;;;;17.16;91.32;101057.28;690590;28;1364;-78